Terminal Aerodrome Forecast
Issued by NWS Lake Charles, LA

Home | Current Version | Previous Version | Text Only | Print | Product List | Glossary On
Versions: 1 2 3 4 5 6 7 8 9 10 11 12 13 14 15 16 17 18 19 20 21 22 23 24 25 26 27
000
FTUS44 KLCH 230000 AAA
TAFLCH
TAF AMD
KLCH 230001Z 2300/2324 21008KT P6SM OVC007
     FM230300 VRB04KT 2SM BR BKN005
      TEMPO 2309/2313 1SM BR OVC002
     FM231300 VRB06KT 4SM BR VCTS BKN007CB=

USA.gov is the U.S. government's official web portal to all federal, state and local government web resources and services.